Latest Coastal Weather Observations for Swan Island

IDT60701

Issued at 11:22 pm EDT Friday 23 October 2020 (issued every 10 minutes, with the page automatically refreshed every 10 minutes)

About coastal observations | Map of coastal stations | Coastal observations for TAS | Marine services | Other Formats
Station Details ID: 092123 Name: SWAN ISLAND Lat: -40.73 Lon: 148.12 Height: 15.0 m
Data from the previous 72 hours. | See also: Recent months at Swan Island
Date/Time
EDT
Wind Sea
Height
m
Swell Vis
km
Cloud Weather Temp
°C
Press
MSL
hPa
Rain since
9am
mm
Dir  Spd
kts
Gust
kts
Height
m
Period
s
Dir
23/11:00pm N 6 9 - - - - - - - 14.3 1004.7 1.2
23/10:30pm N 2 4 - - - - - - - 14.1 1005.2 1.2
23/10:00pm NNE 7 9 - - - - - - - 14.2 1005.5 1.2
23/09:30pm N 6 8 - - - - - - - 14.1 1006.0 1.2
23/09:00pm NNE 5 7 - - - - - - - 14.1 1006.1 1.2
23/08:30pm NNE 4 6 - - - - - - - 14.0 1005.9 1.2
23/08:00pm NNE 5 7 - - - - - - - 14.1 1005.8 1.2
23/07:30pm NNE 5 7 - - - - - - - 14.0 1005.7 1.2
23/07:00pm NE 8 11 - - - - - - - 14.0 1005.7 1.2
23/06:30pm NE 8 10 - - - - - - - 14.1 1005.7 1.2
23/06:00pm NE 7 9 - - - - - - - 14.1 1006.0 1.2
23/05:30pm NE 5 7 - - - - - - - 14.2 1006.4 1.2
23/05:00pm NE 7 9 - - - - - - - 14.1 1006.5 1.2
23/04:30pm ENE 6 7 - - - - - - - 13.9 1006.6 1.2
23/04:00pm NNE 5 7 - - - - - - - 13.8 1007.2 1.2
23/03:30pm NNE 3 4 - - - - - - - 13.6 1007.8 1.0
23/03:00pm NNE 3 3 - - - - - - - 14.0 1008.2 1.0
23/02:30pm NNE 2 3 - - - - - - - 14.1 1008.7 1.0
23/02:00pm NNE 3 4 - - - - - - - 14.4 1008.7 1.0
23/01:30pm NNE 4 5 - - - - - - - 13.9 1008.8 1.0
23/01:00pm NNE 3 5 - - - - - - - 14.5 1009.0 1.0
23/12:30pm NNE 1 3 - - - - - - - 13.8 1009.9 0.8
23/12:00pm NNE 2 4 - - - - - - - 13.3 1010.1 0.6
23/11:30am NNE 3 4 - - - - - - - 13.5 1010.4 0.6
23/11:00am NNE 3 3 - - - - - - - 13.4 1010.6 0.6
23/10:30am NNE 1 2 - - - - - - - 13.4 1011.1 0.0
23/10:00am CALM 0 0 - - - - - - - 13.5 1011.5 0.0
23/09:30am NNE 1 2 - - - - - - - 13.4 1011.5 0.0
23/09:00am NNE 3 4 - - - - - - - 12.7 1011.5 0.0
23/08:30am NNE 2 3 - - - - - - - 12.7 1011.8 0.0
23/08:00am CALM 0 0 - - - - - - - 13.0 1012.0 0.0
23/07:30am NNE 3 3 - - - - - - - 12.6 1011.7 0.0
23/07:00am NNE 4 5 - - - - - - - 12.3 1011.5 0.0
23/06:30am NNE 2 3 - - - - - - - 11.9 1011.5 0.0
23/06:00am CALM 0 0 - - - - - - - 11.8 1011.3 0.0
23/05:30am CALM 0 0 - - - - - - - 11.7 1011.4 0.0
23/05:00am NNE 2 3 - - - - - - - 12.0 1011.5 0.0
23/04:30am NNE 2 3 - - - - - - - 12.1 1011.8 0.0
23/04:00am NNE 3 4 - - - - - - - 11.7 1011.7 0.0
23/03:30am NNE 4 5 - - - - - - - 11.7 1012.0 0.0
23/03:00am NNE 4 6 - - - - - - - 11.8 1012.6 0.0
23/02:30am NNE 4 6 - - - - - - - 11.9 1013.2 0.0
23/02:00am NNE 4 6 - - - - - - - 12.0 1013.8 0.0
23/01:30am NNE 6 7 - - - - - - - 12.3 1014.1 0.0
23/01:00am NNE 6 8 - - - - - - - 12.2 1014.5 0.0
23/12:30am NNE 7 9 - - - - - - - 12.4 1014.9 0.0
23/12:00am NE 7 8 - - - - - - - 12.4 1015.3 0.0
 
Date/Time
EDT
Wind Sea
Height
m
Swell Vis
km
Cloud Weather Temp
°C
Press
MSL
hPa
Rain since
9am
mm
Dir  Spd
kts
Gust
kts
Height
m
Period
s
Dir
22/11:30pm NE 5 6 - - - - - - - 12.3 1015.6 0.0
22/11:00pm NE 4 5 - - - - - - - 12.4 1015.9 0.0
22/10:30pm NE 5 6 - - - - - - - 12.7 1016.1 0.0
22/10:00pm ENE 6 7 - - - - - - - 12.8 1015.8 0.0
22/09:30pm NE 6 7 - - - - - - - 12.7 1015.8 0.0
22/09:00pm ENE 6 7 - - - - - - - 12.8 1015.8 0.0
22/08:30pm ENE 7 8 - - - - - - - 13.0 1015.2 0.0
22/08:00pm ENE 4 4 - - - - - - - 13.0 1015.6 0.0
22/07:30pm E 4 5 - - - - - - - 13.2 1015.8 0.0
22/07:00pm ESE 7 8 - - - - - - - 13.8 1015.2 0.0
22/06:30pm E 7 8 - - - - - - - 14.0 1015.4 0.0
22/06:00pm ESE 7 8 - - - - - - - 14.4 1015.1 0.0
22/05:30pm E 7 9 - - - - - - - 14.9 1014.9 0.0
22/05:00pm ESE 6 8 - - - - - - - 15.6 1015.0 0.0
22/04:30pm ESE 7 8 - - - - - - - 15.7 1015.2 0.0
22/04:00pm SE 9 10 - - - - - - - 15.2 1015.2 0.0
22/03:30pm ESE 7 9 - - - - - - - 15.2 1015.2 0.0
22/03:00pm E 8 10 - - - - - - - 16.9 1015.3 0.0
22/02:30pm ESE 8 9 - - - - - - - 16.1 1015.5 0.0
22/02:00pm ESE 7 9 - - - - - - - 16.7 1015.6 0.0
22/01:30pm ESE 8 10 - - - - - - - 17.3 1015.9 0.0
22/01:00pm E 8 10 - - - - - - - 17.3 1015.9 0.0
22/12:30pm E 8 10 - - - - - - - 16.7 1016.1 0.0
22/12:00pm ESE 11 12 - - - - - - - 15.4 1016.1 0.0
22/11:30am SE 11 15 - - - - - - - 15.5 1016.4 0.0
22/11:00am SE 10 14 - - - - - - - 15.6 1016.7 0.0
22/10:30am SE 11 15 - - - - - - - 15.4 1016.6 0.0
22/10:00am SE 12 15 - - - - - - - 15.5 1016.4 0.0
22/09:30am SE 12 15 - - - - - - - 15.0 1016.5 0.0
22/09:00am SE 11 15 - - - - - - - 14.3 1016.6 0.0
22/08:30am SSE 9 14 - - - - - - - 13.9 1016.2 0.0
22/08:00am SSE 7 9 - - - - - - - 12.9 1016.1 0.0
22/07:30am SSE 6 11 - - - - - - - 12.7 1016.0 0.0
22/07:00am SSE 6 9 - - - - - - - 11.7 1016.1 0.0
22/06:30am SSE 7 9 - - - - - - - 11.8 1015.5 0.0
22/06:00am SSE 7 9 - - - - - - - 12.0 1015.3 0.0
22/05:30am S 3 6 - - - - - - - 11.8 1015.1 0.0
22/05:00am W 1 2 - - - - - - - 11.7 1014.9 0.0
22/04:30am W 2 2 - - - - - - - 11.7 1015.1 0.0
22/04:00am W 2 2 - - - - - - - 11.7 1015.0 0.0
22/03:30am WNW 2 2 - - - - - - - 11.3 1015.0 0.0
22/03:00am WNW 2 2 - - - - - - - 11.3 1015.1 0.0
22/02:30am WNW 3 4 - - - - - - - 11.6 1015.2 0.0
22/02:00am WNW 3 4 - - - - - - - 11.7 1015.4 0.0
22/01:30am NW 5 6 - - - - - - - 12.4 1015.6 0.0
22/01:00am WNW 3 5 - - - - - - - 12.3 1015.8 0.0
22/12:30am NW 4 5 - - - - - - - 12.4 1015.8 0.0
22/12:00am WNW 5 6 - - - - - - - 12.4 1015.8 0.0
 
Date/Time
EDT
Wind Sea
Height
m
Swell Vis
km
Cloud Weather Temp
°C
Press
MSL
hPa
Rain since
9am
mm
Dir  Spd
kts
Gust
kts
Height
m
Period
s
Dir
21/11:30pm WNW 5 7 - - - - - - - 12.5 1016.0 0.0
21/11:00pm WNW 5 7 - - - - - - - 12.4 1016.0 0.0
21/10:30pm W 5 6 - - - - - - - 12.1 1015.8 0.0
21/10:00pm WNW 5 7 - - - - - - - 12.2 1015.9 0.0
21/09:30pm W 6 9 - - - - - - - 12.2 1015.8 0.0
21/09:00pm WNW 7 10 - - - - - - - 12.3 1015.5 0.0
21/08:30pm WNW 9 12 - - - - - - - 12.2 1015.4 0.0
21/08:00pm WNW 9 13 - - - - - - - 12.1 1015.1 0.0
21/07:30pm WNW 7 11 - - - - - - - 12.4 1014.7 0.0
21/07:00pm WNW 7 12 - - - - - - - 12.8 1014.4 0.0
21/06:30pm WNW 10 13 - - - - - - - 12.8 1014.2 0.0
21/06:00pm NW 10 13 - - - - - - - 13.5 1014.3 0.0
21/05:30pm WNW 9 13 - - - - - - - 13.3 1014.0 0.0
21/05:00pm WNW 9 12 - - - - - - - 14.4 1014.1 0.0
21/04:30pm NW 8 11 - - - - - - - 15.0 1014.0 0.0
21/04:00pm WNW 9 13 - - - - - - - 15.0 1014.3 0.0
21/03:30pm WNW 9 14 - - - - - - - 15.4 1014.5 0.0
21/03:00pm NW 9 12 - - - - - - - 15.0 1014.5 0.0
21/02:30pm WNW 9 13 - - - - - - - 15.6 1014.8 0.0
21/02:00pm WNW 9 13 - - - - - - - 15.4 1014.9 0.0
21/01:30pm WNW 10 13 - - - - - - - 14.8 1015.0 0.0
21/01:00pm WNW 8 11 - - - - - - - 16.1 1015.0 0.0
21/12:30pm W 8 12 - - - - - - - 16.4 1015.3 0.0
21/12:00pm NW 9 12 - - - - - - - 14.9 1015.8 0.0
21/11:30am NW 9 11 - - - - - - - 15.6 1015.8 0.0
21/11:00am WNW 8 12 - - - - - - - 16.8 1015.9 0.0
21/10:30am W 10 13 - - - - - - - 15.2 1015.9 0.0
21/10:00am W 7 11 - - - - - - - 15.2 1015.9 0.0
21/09:30am W 8 11 - - - - - - - 14.6 1016.1 0.0
21/09:00am W 7 12 - - - - - - - 14.3 1016.1 0.0
21/08:30am WNW 8 11 - - - - - - - 12.9 1016.1 0.0
21/08:00am W 6 9 - - - - - - - 12.0 1016.0 0.0
21/07:30am NW 9 12 - - - - - - - 12.1 1016.0 0.0
21/07:00am NW 9 13 - - - - - - - 11.8 1015.9 0.0
21/06:30am WNW 8 11 - - - - - - - 11.9 1015.7 0.0
21/06:00am WNW 9 12 - - - - - - - 11.8 1015.3 0.0
21/05:30am WNW 8 12 - - - - - - - 11.9 1015.3 0.0
21/05:00am WNW 8 10 - - - - - - - 11.8 1015.6 0.0
21/04:30am WNW 7 10 - - - - - - - 11.5 1015.5 0.0
21/04:00am WNW 8 11 - - - - - - - 11.4 1015.6 0.0
21/03:30am WNW 8 11 - - - - - - - 11.3 1015.5 0.0
21/03:00am WNW 10 13 - - - - - - - 11.8 1015.7 0.0
21/02:30am WNW 9 13 - - - - - - - 11.9 1016.0 0.0
21/02:00am NW 11 15 - - - - - - - 11.7 1016.2 0.0
21/01:30am WNW 10 14 - - - - - - - 11.8 1016.6 0.0
21/01:00am NW 12 16 - - - - - - - 12.0 1016.8 0.0
21/12:30am NW 10 15 - - - - - - - 11.9 1016.8 0.0
21/12:00am NW 12 18 - - - - - - - 12.0 1017.0 0.0
 
Date/Time
EDT
Wind Sea
Height
m
Swell Vis
km
Cloud Weather Temp
°C
Press
MSL
hPa
Rain since
9am
mm
Dir  Spd
kts
Gust
kts
Height
m
Period
s
Dir
20/11:30pm WNW 12 17 - - - - - - - 12.1 1016.9 0.0

Other formats

Comma delimited format used in spreadsheet applications
http://www.bom.gov.au/fwo/IDT60701/IDT60701.95985.axf

JavaScript Object Notation format (JSON) in row-major order
http://www.bom.gov.au/fwo/IDT60701/IDT60701.95985.json

Data quality

Most of these data are generated automatically and are frequently updated. Quality checks on data are not normally performed. It is possible for incorrect values to appear. Refer to information at About Latest Weather Observations and please check the disclaimer before using these data.